Time;durP1;ratioP1;P1;durP2;ratioP2;P2;SDS_P1;SDS_P2;PMS_P1;PMS_P2;Temp;Humidity;BMP_temperature;BMP_pressure;BME280_temperature;BME280_humidity;BME280_pressure;Samples;Min_cycle;Max_cycle;Signal;HPM_P1;HPM_P2
2021/07/26 00:01:24;;;;;;;9.52;4.45;;;16.90;99.90;;;;;;4993415;28;20105;-62
2021/07/26 00:03:49;;;;;;;14.23;5.68;;;16.90;99.90;;;;;;4993711;28;20030;-62
2021/07/26 00:06:15;;;;;;;10.38;4.90;;;17.00;99.90;;;;;;5000115;28;20037;-63
2021/07/26 00:08:41;;;;;;;10.00;5.85;;;17.00;99.90;;;;;;5007268;28;20522;-62
2021/07/26 00:11:09;;;;;;;15.95;7.05;;;17.00;99.90;;;;;;5007068;28;21333;-63
2021/07/26 00:13:35;;;;;;;13.25;4.93;;;17.00;99.90;;;;;;5008803;28;20034;-63
2021/07/26 00:16:01;;;;;;;6.88;4.38;;;17.10;99.90;;;;;;5006702;28;20029;-62
2021/07/26 00:18:27;;;;;;;20.65;5.88;;;17.20;99.90;;;;;;5004391;28;20026;-62
2021/07/26 00:20:54;;;;;;;10.40;5.43;;;17.20;99.90;;;;;;5005822;28;20041;-62
2021/07/26 00:23:19;;;;;;;7.75;4.53;;;17.20;99.90;;;;;;5002227;28;20081;-63
2021/07/26 00:25:45;;;;;;;13.98;4.72;;;17.20;99.90;;;;;;4998103;28;20041;-63
2021/07/26 00:28:11;;;;;;;7.82;4.78;;;17.20;99.90;;;;;;4996818;28;20033;-62
2021/07/26 00:30:36;;;;;;;7.53;5.20;;;17.20;99.90;;;;;;5005570;28;20026;-63
2021/07/26 00:33:03;;;;;;;7.43;4.90;;;17.20;99.90;;;;;;4994366;28;20029;-63
2021/07/26 00:35:28;;;;;;;6.63;4.57;;;17.10;99.90;;;;;;5003692;28;20025;-63
2021/07/26 00:37:54;;;;;;;12.32;5.28;;;17.10;99.90;;;;;;4995981;28;20060;-62
2021/07/26 00:40:24;;;;;;;17.17;5.32;;;17.10;99.90;;;;;;5001331;28;20033;-63
2021/07/26 00:42:50;;;;;;;8.05;4.63;;;17.00;99.90;;;;;;5005999;28;20522;-62
2021/07/26 00:45:15;;;;;;;7.25;4.40;;;16.90;99.90;;;;;;5008895;28;20034;-62
2021/07/26 00:47:41;;;;;;;10.50;4.75;;;16.90;99.90;;;;;;4964788;28;20050;-62
2021/07/26 00:50:07;;;;;;;8.95;5.07;;;16.90;99.90;;;;;;5007977;28;20454;-61
2021/07/26 00:52:33;;;;;;;8.98;5.03;;;16.80;99.90;;;;;;5009218;28;20350;-57
2021/07/26 00:54:59;;;;;;;13.68;5.25;;;16.80;99.90;;;;;;5007307;28;20033;-62
2021/07/26 00:57:25;;;;;;;11.20;5.00;;;16.80;99.90;;;;;;5006899;28;20026;-63
2021/07/26 00:59:52;;;;;;;8.65;4.50;;;16.80;99.90;;;;;;5008420;28;20038;-63
2021/07/26 01:02:18;;;;;;;8.77;5.07;;;16.70;99.90;;;;;;5007610;28;20018;-62
2021/07/26 01:04:44;;;;;;;24.00;6.40;;;16.70;99.90;;;;;;5007301;28;20030;-63
2021/07/26 01:07:09;;;;;;;9.77;5.20;;;16.70;99.90;;;;;;5006368;28;20073;-62
2021/07/26 01:09:35;;;;;;;13.10;5.65;;;16.70;99.90;;;;;;5008210;28;20487;-63
2021/07/26 01:12:01;;;;;;;13.45;6.10;;;16.70;99.90;;;;;;5008323;28;20042;-62
2021/07/26 01:14:28;;;;;;;10.55;4.60;;;16.70;99.90;;;;;;5006688;28;20065;-62
2021/07/26 01:16:54;;;;;;;5.68;4.60;;;16.70;99.90;;;;;;5008055;28;20507;-63
2021/07/26 01:19:19;;;;;;;10.68;5.53;;;16.70;99.90;;;;;;5001579;28;20085;-62
2021/07/26 01:21:45;;;;;;;7.55;5.18;;;16.70;99.90;;;;;;5008926;28;20046;-63
2021/07/26 01:24:10;;;;;;;7.10;4.57;;;16.70;99.90;;;;;;5007441;28;20129;-61
2021/07/26 01:26:36;;;;;;;8.68;4.32;;;16.70;99.90;;;;;;5007089;28;20030;-63
2021/07/26 01:29:06;;;;;;;11.32;5.25;;;16.70;99.90;;;;;;5007293;28;20463;-61
2021/07/26 01:31:33;;;;;;;6.95;4.53;;;16.70;99.90;;;;;;5008249;28;20034;-63
2021/07/26 01:33:59;;;;;;;9.30;4.28;;;16.70;99.90;;;;;;5002005;28;20046;-62
2021/07/26 01:36:25;;;;;;;10.25;4.80;;;16.70;99.90;;;;;;5007133;28;20432;-63
2021/07/26 01:38:52;;;;;;;6.10;5.10;;;16.70;99.90;;;;;;5006492;28;20539;-63
2021/07/26 01:41:23;;;;;;;9.93;5.28;;;16.60;99.90;;;;;;5001494;28;20034;-63
2021/07/26 01:44:03;;;;;;;11.15;5.38;;;16.60;99.90;;;;;;5017810;28;20650;-62
2021/07/26 01:46:43;;;;;;;17.60;5.22;;;16.60;99.90;;;;;;5007238;28;20120;-62
2021/07/26 01:49:28;;;;;;;9.18;5.22;;;16.60;99.90;;;;;;5007228;28;20033;-63
2021/07/26 01:51:54;;;;;;;9.55;4.68;;;16.60;99.90;;;;;;5008003;28;20033;-62
2021/07/26 01:54:20;;;;;;;11.88;4.65;;;16.60;99.90;;;;;;4992883;28;20521;-62
2021/07/26 01:56:46;;;;;;;11.70;5.05;;;16.50;99.90;;;;;;5010113;28;20045;-63
2021/07/26 01:59:11;;;;;;;9.15;4.40;;;16.50;99.90;;;;;;5009031;28;20041;-62
2021/07/26 02:01:37;;;;;;;7.78;5.10;;;16.50;99.90;;;;;;5002552;28;20118;-62
2021/07/26 02:04:03;;;;;;;15.23;5.28;;;16.50;99.90;;;;;;5005951;28;20038;-63
2021/07/26 02:06:28;;;;;;;6.60;5.22;;;16.50;99.90;;;;;;5008585;28;20476;-62
2021/07/26 02:08:54;;;;;;;6.90;5.07;;;16.50;99.90;;;;;;5023634;28;20029;-62
2021/07/26 02:11:22;;;;;;;6.47;4.72;;;16.50;99.90;;;;;;5004763;28;20108;-62
2021/07/26 02:13:52;;;;;;;12.35;5.63;;;16.50;99.90;;;;;;5008839;28;20036;-62
2021/07/26 02:16:18;;;;;;;9.32;4.57;;;16.50;99.90;;;;;;5007987;28;20033;-63
2021/07/26 02:18:44;;;;;;;12.10;5.38;;;16.50;99.90;;;;;;5009640;28;20037;-63
2021/07/26 02:21:10;;;;;;;10.20;5.60;;;16.50;99.90;;;;;;5007519;28;20026;-62
2021/07/26 02:23:36;;;;;;;6.93;4.93;;;16.40;99.90;;;;;;5010488;28;20488;-65
2021/07/26 02:26:02;;;;;;;9.50;5.18;;;16.40;99.90;;;;;;5009862;28;20498;-63
2021/07/26 02:28:27;;;;;;;13.82;5.55;;;16.40;99.90;;;;;;5006952;28;20947;-62
2021/07/26 02:30:53;;;;;;;11.05;5.15;;;16.40;99.90;;;;;;5006914;28;20539;-63
2021/07/26 02:33:19;;;;;;;10.98;5.10;;;16.40;99.90;;;;;;5010778;28;20034;-63
2021/07/26 02:35:44;;;;;;;12.10;5.78;;;16.40;99.90;;;;;;5008884;28;20030;-62
2021/07/26 02:38:11;;;;;;;10.70;5.18;;;16.40;99.90;;;;;;5005356;28;20033;-62
2021/07/26 02:40:37;;;;;;;12.75;5.85;;;16.40;99.90;;;;;;5005610;28;20057;-62
2021/07/26 02:43:02;;;;;;;11.82;4.82;;;16.40;99.90;;;;;;5006914;28;20054;-61
2021/07/26 02:45:28;;;;;;;9.10;4.82;;;16.40;99.90;;;;;;5007831;28;20563;-63
2021/07/26 02:47:54;;;;;;;6.25;4.93;;;16.40;99.90;;;;;;5009161;28;20048;-61
2021/07/26 02:50:20;;;;;;;8.32;4.88;;;16.40;99.90;;;;;;5006038;28;20136;-63
2021/07/26 02:52:46;;;;;;;7.75;4.93;;;16.50;99.90;;;;;;5008112;28;20034;-63
2021/07/26 02:55:12;;;;;;;7.03;4.88;;;16.60;99.90;;;;;;4984139;28;20088;-62
2021/07/26 02:57:38;;;;;;;7.07;4.43;;;16.60;99.90;;;;;;5004842;28;20095;-63
2021/07/26 03:00:05;;;;;;;12.15;5.03;;;16.60;99.90;;;;;;4999102;28;20609;-62
2021/07/26 03:02:33;;;;;;;10.27;6.05;;;16.60;99.90;;;;;;5007863;28;20029;-60
2021/07/26 03:04:59;;;;;;;12.35;5.75;;;16.60;99.90;;;;;;5004324;28;20026;-64
2021/07/26 03:07:25;;;;;;;8.10;4.78;;;16.60;99.90;;;;;;5006193;28;20084;-63
2021/07/26 03:09:50;;;;;;;8.93;4.90;;;16.50;99.90;;;;;;5010028;28;20030;-63
2021/07/26 03:12:16;;;;;;;7.15;5.57;;;16.50;99.90;;;;;;5010141;28;20036;-61
2021/07/26 03:14:42;;;;;;;8.05;4.97;;;16.40;99.90;;;;;;5006803;28;20419;-63
2021/07/26 03:17:07;;;;;;;6.32;4.95;;;16.40;99.90;;;;;;5005447;28;20162;-63
2021/07/26 03:19:34;;;;;;;5.22;4.72;;;16.40;99.90;;;;;;5007018;28;20116;-62
2021/07/26 03:22:45;;;;;;;8.27;4.70;;;16.50;99.90;;;;;;5007817;28;20058;-62
2021/07/26 03:25:11;;;;;;;8.25;5.63;;;16.40;99.90;;;;;;4987324;28;20038;-64
2021/07/26 03:27:36;;;;;;;10.70;5.90;;;16.40;99.90;;;;;;5004862;28;20014;-62
2021/07/26 03:30:03;;;;;;;10.68;5.45;;;16.50;99.90;;;;;;5004259;28;20049;-62
2021/07/26 03:32:28;;;;;;;9.20;5.38;;;16.40;99.90;;;;;;5007847;28;20018;-63
2021/07/26 03:34:54;;;;;;;9.73;6.00;;;16.40;99.90;;;;;;5007607;28;20066;-63
2021/07/26 03:37:19;;;;;;;7.63;5.47;;;16.40;99.90;;;;;;5005075;28;20048;-62
2021/07/26 03:39:45;;;;;;;11.70;5.50;;;16.40;99.90;;;;;;5009420;28;20065;-62
2021/07/26 03:42:10;;;;;;;6.50;5.22;;;16.40;99.90;;;;;;5007709;28;20022;-63
2021/07/26 03:44:36;;;;;;;9.90;5.65;;;16.40;99.90;;;;;;5009007;28;20109;-62
2021/07/26 03:47:01;;;;;;;14.80;6.03;;;16.40;99.90;;;;;;5007414;28;20118;-63
2021/07/26 03:49:27;;;;;;;6.65;5.70;;;16.30;99.90;;;;;;5005026;28;20108;-63
2021/07/26 03:51:52;;;;;;;18.38;6.40;;;16.30;99.90;;;;;;5006402;28;20821;-62
2021/07/26 03:54:18;;;;;;;13.52;6.10;;;16.30;99.90;;;;;;5006228;28;20037;-63
2021/07/26 03:56:43;;;;;;;10.18;6.47;;;16.30;99.90;;;;;;4993411;28;20046;-63
2021/07/26 03:59:09;;;;;;;10.32;5.50;;;16.30;99.90;;;;;;5008787;28;20033;-62
2021/07/26 04:01:35;;;;;;;7.15;5.88;;;16.30;99.90;;;;;;5007017;28;20397;-62
2021/07/26 04:04:00;;;;;;;11.45;6.15;;;16.30;99.90;;;;;;5008138;28;20101;-62
2021/07/26 04:06:26;;;;;;;7.35;5.28;;;16.40;99.90;;;;;;5008565;28;20034;-63
2021/07/26 04:08:53;;;;;;;10.32;6.20;;;16.40;99.90;;;;;;5004606;28;20064;-68
2021/07/26 04:11:26;;;;;;;12.05;6.28;;;16.40;99.90;;;;;;5008901;28;20030;-63
2021/07/26 04:13:58;;;;;;;9.40;6.00;;;16.40;99.90;;;;;;5004505;28;20042;-62
2021/07/26 04:16:24;;;;;;;7.70;5.50;;;16.50;99.90;;;;;;5008242;28;20105;-63
2021/07/26 04:18:51;;;;;;;8.80;5.25;;;16.60;99.90;;;;;;5001601;28;20109;-61
2021/07/26 04:21:17;;;;;;;9.85;5.45;;;16.60;99.90;;;;;;5007591;28;20112;-63
2021/07/26 04:23:42;;;;;;;8.45;5.00;;;16.70;99.90;;;;;;5002389;28;20471;-61
2021/07/26 04:26:08;;;;;;;8.52;5.18;;;16.70;99.90;;;;;;5007665;28;20030;-62
2021/07/26 04:28:35;;;;;;;9.73;5.43;;;16.70;99.90;;;;;;5007006;28;20037;-62
2021/07/26 04:31:03;;;;;;;10.52;5.00;;;16.80;99.90;;;;;;5008249;28;20038;-62
2021/07/26 04:33:28;;;;;;;13.57;5.38;;;16.90;99.90;;;;;;5006547;28;20531;-62
2021/07/26 04:35:54;;;;;;;16.38;5.05;;;16.90;99.90;;;;;;5005680;28;20030;-62
2021/07/26 04:38:20;;;;;;;7.53;4.70;;;16.90;99.90;;;;;;5008693;28;20033;-63
2021/07/26 04:40:45;;;;;;;6.07;4.88;;;16.90;99.90;;;;;;5008441;28;20033;-63
2021/07/26 04:43:11;;;;;;;9.80;4.57;;;17.00;99.90;;;;;;5007065;28;20030;-62
2021/07/26 04:45:36;;;;;;;11.98;5.78;;;17.10;99.90;;;;;;5006227;28;20495;-62
2021/07/26 04:48:02;;;;;;;7.03;4.70;;;17.10;99.90;;;;;;5008651;28;20482;-63
2021/07/26 04:50:28;;;;;;;15.13;4.60;;;17.20;99.90;;;;;;5007592;28;20088;-62
2021/07/26 04:52:53;;;;;;;10.73;4.95;;;17.30;99.90;;;;;;5003735;28;20072;-62
2021/07/26 04:55:19;;;;;;;10.82;5.25;;;17.40;99.90;;;;;;5004653;28;20618;-62
2021/07/26 04:57:45;;;;;;;12.10;4.65;;;17.50;99.90;;;;;;5005624;28;20033;-65
2021/07/26 05:00:11;;;;;;;5.13;4.32;;;17.50;99.90;;;;;;5006600;28;20045;-63
2021/07/26 05:02:38;;;;;;;10.93;4.63;;;17.70;99.90;;;;;;4990742;28;20053;-61
2021/07/26 05:05:04;;;;;;;10.18;4.82;;;18.00;99.90;;;;;;5005553;28;20062;-63
2021/07/26 05:07:30;;;;;;;6.20;4.05;;;18.20;99.90;;;;;;5005267;28;20030;-63
2021/07/26 05:09:56;;;;;;;7.07;4.10;;;18.40;99.90;;;;;;5007134;28;20030;-63
2021/07/26 05:12:21;;;;;;;8.32;4.63;;;18.50;99.90;;;;;;5008466;28;20034;-63
2021/07/26 05:14:47;;;;;;;8.27;3.78;;;18.50;99.90;;;;;;5006592;28;20084;-63
2021/07/26 05:17:17;;;;;;;10.77;4.03;;;18.50;99.90;;;;;;5006675;28;20045;-60
2021/07/26 05:19:42;;;;;;;4.97;3.88;;;18.60;99.90;;;;;;5005265;28;20034;-63
2021/07/26 05:22:08;;;;;;;6.80;3.83;;;18.70;99.90;;;;;;5011432;28;20025;-63
2021/07/26 05:24:34;;;;;;;5.70;3.75;;;18.80;99.90;;;;;;5009785;28;20025;-64
2021/07/26 05:27:04;;;;;;;8.00;3.33;;;19.00;99.90;;;;;;5025712;28;20042;-63
2021/07/26 05:29:31;;;;;;;5.72;3.45;;;19.10;99.90;;;;;;5011298;28;20041;-63
2021/07/26 05:31:58;;;;;;;8.95;3.13;;;19.30;99.90;;;;;;5005126;28;20065;-63
2021/07/26 05:34:24;;;;;;;6.03;3.38;;;19.50;99.90;;;;;;5026136;28;20026;-64
2021/07/26 05:36:50;;;;;;;4.10;3.00;;;19.70;99.90;;;;;;5009015;28;20591;-62
2021/07/26 05:39:16;;;;;;;3.58;3.15;;;20.00;99.90;;;;;;5008294;28;20112;-63
2021/07/26 05:41:42;;;;;;;5.90;2.90;;;20.30;99.90;;;;;;5012321;28;20030;-63
2021/07/26 05:44:08;;;;;;;7.22;3.83;;;20.50;99.90;;;;;;5012451;28;20038;-63
2021/07/26 05:46:34;;;;;;;8.57;3.05;;;20.90;99.90;;;;;;5007488;28;20026;-64
2021/07/26 05:48:59;;;;;;;6.43;3.00;;;21.90;99.90;;;;;;5009889;28;20391;-61
2021/07/26 05:51:25;;;;;;;8.70;2.65;;;22.90;99.90;;;;;;5009991;28;20026;-64
2021/07/26 05:53:51;;;;;;;5.18;2.47;;;24.70;99.90;;;;;;5011123;28;20030;-64
2021/07/26 05:56:16;;;;;;;5.88;2.38;;;26.30;99.90;;;;;;5002694;28;20041;-64
2021/07/26 05:58:45;;;;;;;4.25;2.50;;;26.90;99.50;;;;;;5010050;28;20476;-64
2021/07/26 06:01:23;;;;;;;14.30;3.45;;;27.40;98.50;;;;;;5008200;28;20479;-63
2021/07/26 06:03:50;;;;;;;5.20;2.60;;;28.30;96.80;;;;;;4992635;28;20054;-65
2021/07/26 06:06:16;;;;;;;3.03;2.50;;;28.60;95.80;;;;;;5009130;28;20451;-63
2021/07/26 06:08:42;;;;;;;3.20;2.17;;;29.70;94.00;;;;;;5010939;28;20029;-64
2021/07/26 06:11:08;;;;;;;5.82;2.28;;;29.90;92.70;;;;;;5009891;28;20105;-64
2021/07/26 06:13:33;;;;;;;3.67;2.10;;;30.40;92.50;;;;;;5004106;28;20038;-64
2021/07/26 06:15:59;;;;;;;4.43;2.40;;;30.40;91.30;;;;;;5007441;28;20034;-64
2021/07/26 06:18:26;;;;;;;3.50;2.40;;;31.00;90.10;;;;;;5004023;28;20037;-63
2021/07/26 06:20:52;;;;;;;4.40;2.40;;;31.20;88.80;;;;;;5007440;28;20026;-64
2021/07/26 06:23:20;;;;;;;2.72;2.22;;;30.90;88.80;;;;;;5006128;28;20487;-64
2021/07/26 06:25:45;;;;;;;3.28;2.15;;;29.90;89.60;;;;;;5009153;28;20025;-64
2021/07/26 06:28:11;;;;;;;3.90;2.25;;;28.70;91.70;;;;;;5010098;28;20036;-63
2021/07/26 06:30:37;;;;;;;4.03;2.20;;;27.50;91.40;;;;;;5010435;28;20041;-62
2021/07/26 06:33:06;;;;;;;11.20;3.53;;;26.40;93.20;;;;;;5010272;28;20538;-64
2021/07/26 06:35:32;;;;;;;5.90;2.20;;;26.30;95.00;;;;;;5003449;28;20054;-64
2021/07/26 06:37:57;;;;;;;8.70;2.42;;;26.60;95.60;;;;;;5010511;28;20396;-65
2021/07/26 06:40:23;;;;;;;5.57;2.00;;;28.20;93.80;;;;;;5006430;28;20026;-64
2021/07/26 06:42:48;;;;;;;4.20;2.00;;;29.90;91.10;;;;;;5009679;28;20041;-64
2021/07/26 06:45:14;;;;;;;2.90;2.38;;;31.20;90.20;;;;;;5008967;28;20041;-64
2021/07/26 06:47:39;;;;;;;2.78;2.33;;;31.60;86.30;;;;;;5005855;28;20491;-63
2021/07/26 06:50:05;;;;;;;3.30;2.20;;;31.60;85.10;;;;;;5007618;28;20022;-64
2021/07/26 06:52:31;;;;;;;4.88;2.53;;;31.50;84.70;;;;;;5007330;28;20048;-64
2021/07/26 06:54:57;;;;;;;12.43;2.40;;;31.20;84.90;;;;;;5004005;28;20067;-65
2021/07/26 06:57:22;;;;;;;4.95;2.60;;;30.10;85.20;;;;;;5008644;28;20058;-64
2021/07/26 06:59:48;;;;;;;4.38;2.40;;;29.90;88.90;;;;;;5001722;28;20496;-63
2021/07/26 07:02:14;;;;;;;4.07;2.28;;;29.90;87.70;;;;;;4988827;28;20022;-63
2021/07/26 07:04:40;;;;;;;3.67;2.53;;;30.50;87.90;;;;;;5007248;28;20096;-63
2021/07/26 07:07:06;;;;;;;3.75;2.38;;;31.20;86.40;;;;;;5009832;28;20129;-62
2021/07/26 07:09:33;;;;;;;2.83;2.00;;;30.40;85.50;;;;;;5007704;28;20030;-62
2021/07/26 07:11:58;;;;;;;5.18;2.35;;;30.90;84.30;;;;;;5009276;28;20091;-61
2021/07/26 07:14:24;;;;;;;4.05;2.40;;;30.60;84.20;;;;;;5006325;28;20604;-61
2021/07/26 07:16:49;;;;;;;4.07;1.90;;;31.20;85.10;;;;;;5009574;28;20026;-62
2021/07/26 07:19:15;;;;;;;6.30;1.92;;;32.30;82.50;;;;;;5007152;28;20105;-61
2021/07/26 07:21:40;;;;;;;3.83;2.35;;;32.00;81.10;;;;;;5007932;28;20365;-61
2021/07/26 07:24:06;;;;;;;4.07;2.10;;;31.80;81.60;;;;;;5005694;28;20061;-61
2021/07/26 07:26:32;;;;;;;5.20;2.03;;;32.20;81.60;;;;;;5009826;28;20030;-62
2021/07/26 07:28:58;;;;;;;3.55;2.30;;;31.60;79.80;;;;;;5006270;28;20053;-60
2021/07/26 07:31:27;;;;;;;5.82;2.25;;;30.30;81.80;;;;;;5007554;28;20080;-61
2021/07/26 07:33:54;;;;;;;3.53;2.15;;;29.80;84.30;;;;;;5008390;28;20061;-61
2021/07/26 07:36:20;;;;;;;3.38;1.80;;;29.60;84.70;;;;;;5004850;28;20029;-61
2021/07/26 07:38:46;;;;;;;3.90;1.90;;;29.60;85.20;;;;;;5006464;28;20079;-62
2021/07/26 07:41:12;;;;;;;3.72;1.98;;;29.70;82.20;;;;;;5006436;28;20034;-63
2021/07/26 07:43:38;;;;;;;2.78;1.95;;;29.50;83.50;;;;;;4999778;28;20034;-64
2021/07/26 07:46:05;;;;;;;4.05;2.25;;;29.40;82.40;;;;;;5007488;28;20022;-62
2021/07/26 07:48:31;;;;;;;5.07;2.10;;;28.90;85.30;;;;;;5006089;28;20511;-64
2021/07/26 07:50:57;;;;;;;5.38;2.35;;;29.50;86.00;;;;;;5008143;28;20057;-63
2021/07/26 07:53:23;;;;;;;5.53;1.80;;;29.80;83.70;;;;;;5003714;28;20626;-63
2021/07/26 07:55:51;;;;;;;2.80;2.05;;;30.70;84.40;;;;;;5008948;28;20026;-62
2021/07/26 07:58:17;;;;;;;2.58;2.00;;;30.50;82.20;;;;;;5008623;28;20046;-62
2021/07/26 08:00:43;;;;;;;2.85;2.10;;;30.30;83.60;;;;;;5009856;28;20064;-62
2021/07/26 08:03:08;;;;;;;4.88;2.38;;;30.00;83.20;;;;;;4981817;28;20117;-63
2021/07/26 08:05:34;;;;;;;4.78;2.70;;;29.60;83.80;;;;;;5002757;28;20022;-61
2021/07/26 08:08:00;;;;;;;3.17;2.42;;;29.50;83.70;;;;;;5008272;28;20022;-63
2021/07/26 08:10:26;;;;;;;3.63;2.05;;;29.80;85.50;;;;;;5007435;28;20369;-62
2021/07/26 08:12:51;;;;;;;4.38;2.30;;;30.50;83.10;;;;;;5007110;28;20113;-61
2021/07/26 08:15:18;;;;;;;3.83;2.33;;;30.00;82.30;;;;;;5007911;28;20030;-62
2021/07/26 08:17:46;;;;;;;3.80;2.13;;;29.90;81.30;;;;;;5007563;28;20025;-62
2021/07/26 08:20:14;;;;;;;4.18;2.83;;;28.90;82.30;;;;;;5003575;28;20022;-62
2021/07/26 08:22:40;;;;;;;7.05;2.33;;;28.10;86.20;;;;;;5003896;28;20054;-62
2021/07/26 08:25:08;;;;;;;4.85;2.45;;;28.00;85.70;;;;;;5006490;28;20034;-63
2021/07/26 08:27:47;;;;;;;6.43;2.78;;;27.70;88.00;;;;;;5006290;28;20056;-62
2021/07/26 08:30:13;;;;;;;3.08;2.10;;;27.30;89.50;;;;;;5007188;28;20037;-62
2021/07/26 08:32:39;;;;;;;5.07;2.15;;;26.70;90.10;;;;;;5008573;28;20038;-61
2021/07/26 08:35:05;;;;;;;3.97;2.30;;;26.00;90.40;;;;;;5003885;28;20033;-62
2021/07/26 08:37:31;;;;;;;2.45;2.20;;;25.50;91.20;;;;;;5006932;28;20526;-61
2021/07/26 08:40:00;;;;;;;3.17;2.28;;;25.80;91.90;;;;;;5005891;28;20061;-62
2021/07/26 08:42:27;;;;;;;3.53;2.50;;;26.40;92.90;;;;;;5004303;28;20076;-62
2021/07/26 08:44:53;;;;;;;4.90;2.38;;;26.60;91.00;;;;;;5008853;28;20055;-62
2021/07/26 08:47:19;;;;;;;3.92;1.90;;;26.50;91.00;;;;;;5005195;28;20495;-62
2021/07/26 08:49:45;;;;;;;4.32;1.98;;;26.30;90.00;;;;;;5005767;28;20038;-61
2021/07/26 08:52:13;;;;;;;2.70;2.20;;;25.70;90.20;;;;;;5005158;28;20518;-62
2021/07/26 08:54:39;;;;;;;5.15;2.53;;;26.00;91.50;;;;;;5001929;28;20037;-60
2021/07/26 08:57:05;;;;;;;3.92;2.47;;;27.00;89.70;;;;;;5008022;28;20076;-62
2021/07/26 08:59:32;;;;;;;5.10;2.40;;;28.30;87.80;;;;;;5006094;28;20026;-63
2021/07/26 09:01:58;;;;;;;6.68;1.88;;;29.80;84.40;;;;;;5003106;28;20059;-64
2021/07/26 09:04:23;;;;;;;3.40;2.20;;;29.40;82.50;;;;;;4985524;28;20045;-62
2021/07/26 09:06:51;;;;;;;3.13;1.63;;;28.70;83.60;;;;;;5004462;28;20030;-59
2021/07/26 09:09:16;;;;;;;2.28;1.90;;;28.00;85.70;;;;;;5020298;28;20128;-61
2021/07/26 09:11:46;;;;;;;6.72;2.40;;;27.80;88.00;;;;;;5007345;28;20550;-62
2021/07/26 09:14:38;;;;;;;3.38;2.22;;;27.60;87.70;;;;;;5006359;28;20026;-62
2021/07/26 09:17:05;;;;;;;3.38;2.10;;;27.30;87.60;;;;;;4997454;28;20028;-62
2021/07/26 09:20:00;;;;;;;5.45;2.22;;;27.60;91.80;;;;;;5001518;28;20036;-62
2021/07/26 09:22:34;;;;;;;2.45;1.63;;;27.90;88.30;;;;;;5002732;28;20951;-62
2021/07/26 09:25:21;;;;;;;2.53;1.80;;;28.90;90.30;;;;;;5005544;28;20032;-63
2021/07/26 09:28:03;;;;;;;5.57;1.80;;;29.30;84.90;;;;;;5006272;28;20032;-62
2021/07/26 09:30:40;;;;;;;1.73;1.63;;;30.60;80.50;;;;;;5002056;28;20022;-62
2021/07/26 09:33:34;;;;;;;2.40;1.85;;;30.00;80.20;;;;;;5004646;28;20454;-62
2021/07/26 09:36:09;;;;;;;1.98;1.58;;;29.50;82.40;;;;;;4987977;28;20403;-62
2021/07/26 09:38:35;;;;;;;2.25;1.67;;;29.40;81.90;;;;;;5002679;28;20018;-62
2021/07/26 09:41:02;;;;;;;2.60;2.33;;;29.90;79.90;;;;;;5003997;28;20105;-63
2021/07/26 09:43:29;;;;;;;2.20;1.73;;;30.10;82.60;;;;;;5006903;28;20084;-63
2021/07/26 09:45:55;;;;;;;3.03;2.00;;;30.60;80.60;;;;;;5002303;28;20068;-62
2021/07/26 09:48:29;;;;;;;3.65;1.90;;;30.80;81.30;;;;;;5001991;28;20088;-64
2021/07/26 09:50:57;;;;;;;4.43;1.98;;;30.70;79.10;;;;;;5005471;28;20133;-57
2021/07/26 09:53:25;;;;;;;2.50;1.80;;;30.20;78.80;;;;;;5009920;28;20116;-62
2021/07/26 09:55:53;;;;;;;1.90;1.60;;;29.50;78.70;;;;;;4998676;28;20022;-62
2021/07/26 09:58:33;;;;;;;7.63;2.28;;;28.90;80.50;;;;;;5004699;28;20124;-62
2021/07/26 10:00:58;;;;;;;4.50;1.88;;;28.10;82.20;;;;;;5006271;28;20053;-62
2021/07/26 10:03:24;;;;;;;3.97;2.05;;;27.80;83.00;;;;;;4990598;28;20108;-61
2021/07/26 10:05:50;;;;;;;4.07;2.22;;;27.40;87.60;;;;;;5006516;28;20041;-62
2021/07/26 10:08:16;;;;;;;2.90;2.08;;;27.20;86.60;;;;;;5010848;28;20080;-61
2021/07/26 10:10:42;;;;;;;6.10;2.03;;;26.70;86.90;;;;;;5008282;28;20407;-58
2021/07/26 10:13:08;;;;;;;3.30;2.17;;;26.90;89.30;;;;;;5010558;28;20735;-62
2021/07/26 10:15:35;;;;;;;2.60;1.95;;;27.50;87.00;;;;;;5010178;28;20025;-62
2021/07/26 10:18:01;;;;;;;6.00;3.15;;;27.80;86.60;;;;;;5009341;28;20096;-62
2021/07/26 10:20:29;;;;;;;4.43;2.05;;;28.10;87.30;;;;;;5009279;28;20037;-62
2021/07/26 10:23:05;;;;;;;3.17;1.80;;;28.00;85.80;;;;;;5007229;28;20499;-62
2021/07/26 10:25:36;;;;;;;2.67;2.03;;;27.50;84.80;;;;;;5001891;28;20065;-62
2021/07/26 10:28:09;;;;;;;3.75;2.13;;;27.50;87.40;;;;;;5010164;28;20432;-62
2021/07/26 10:30:36;;;;;;;5.20;2.15;;;27.30;86.60;;;;;;5010145;28;20034;-62
2021/07/26 10:33:03;;;;;;;4.95;2.13;;;27.10;87.20;;;;;;5008504;28;20038;-62
2021/07/26 10:35:49;;;;;;;2.72;1.90;;;26.80;87.80;;;;;;5007955;28;20041;-64
2021/07/26 10:38:43;;;;;;;6.70;2.30;;;26.60;87.60;;;;;;5009910;28;20038;-61
2021/07/26 10:41:10;;;;;;;4.60;2.13;;;26.70;89.00;;;;;;5023812;28;20507;-62
2021/07/26 10:44:02;;;;;;;2.30;1.90;;;27.10;90.30;;;;;;5010358;28;20064;-62
2021/07/26 10:46:52;;;;;;;3.80;2.17;;;27.80;89.70;;;;;;5010103;28;20165;-62
2021/07/26 10:49:18;;;;;;;2.67;1.88;;;27.90;83.90;;;;;;5006742;28;20025;-62
2021/07/26 10:51:49;;;;;;;3.00;1.70;;;28.20;86.70;;;;;;5004574;28;20026;-62
2021/07/26 10:54:32;;;;;;;3.25;1.80;;;28.40;83.40;;;;;;5008416;28;20100;-64
2021/07/26 10:57:05;;;;;;;3.85;2.15;;;28.10;85.40;;;;;;5008590;28;20026;-62
2021/07/26 10:59:51;;;;;;;3.58;2.03;;;28.20;83.90;;;;;;5008124;28;20022;-57
2021/07/26 11:02:35;;;;;;;4.60;2.40;;;28.50;87.20;;;;;;5008879;28;20048;-62
2021/07/26 11:05:26;;;;;;;5.30;1.80;;;29.40;84.00;;;;;;4996762;28;20719;-62
2021/07/26 11:08:13;;;;;;;4.35;2.22;;;29.50;82.40;;;;;;5019604;28;20091;-62
2021/07/26 11:10:49;;;;;;;2.28;1.67;;;29.30;79.20;;;;;;5004404;28;20030;-62
2021/07/26 11:13:16;;;;;;;3.65;2.00;;;28.60;79.70;;;;;;5007808;28;20029;-63
2021/07/26 11:15:53;;;;;;;2.60;1.88;;;28.60;81.10;;;;;;5011085;28;20022;-64
2021/07/26 11:18:32;;;;;;;5.18;2.60;;;28.50;80.80;;;;;;5004867;28;20044;-63
2021/07/26 11:21:10;;;;;;;2.83;1.88;;;28.80;83.70;;;;;;5006797;28;20397;-63
2021/07/26 11:23:46;;;;;;;3.67;1.90;;;28.40;81.50;;;;;;5010143;28;20026;-64
2021/07/26 11:26:20;;;;;;;5.53;1.85;;;28.70;83.60;;;;;;5008636;28;20448;-65
2021/07/26 11:28:50;;;;;;;3.65;2.10;;;28.60;83.20;;;;;;5004917;28;20091;-61
2021/07/26 11:31:21;;;;;;;5.07;2.10;;;28.80;83.10;;;;;;5007137;28;20037;-62
2021/07/26 11:33:46;;;;;;;2.53;2.20;;;28.70;79.80;;;;;;5004160;28;20061;-68
2021/07/26 11:36:12;;;;;;;5.00;2.30;;;28.60;81.80;;;;;;5009274;28;20046;-63
2021/07/26 11:39:05;;;;;;;3.65;2.10;;;28.50;83.40;;;;;;5006565;28;20030;-62
2021/07/26 11:41:31;;;;;;;3.50;1.90;;;28.10;82.10;;;;;;5006303;28;20041;-62
2021/07/26 11:43:57;;;;;;;2.75;1.95;;;28.00;83.20;;;;;;5008543;28;20702;-63
2021/07/26 11:46:25;;;;;;;2.45;2.17;;;27.90;82.60;;;;;;5007892;28;20056;-62
2021/07/26 11:48:58;;;;;;;3.13;1.90;;;28.20;86.10;;;;;;5009996;28;20022;-63
2021/07/26 11:51:32;;;;;;;3.67;2.03;;;28.40;85.70;;;;;;4997919;28;20034;-61
2021/07/26 11:54:06;;;;;;;4.00;1.83;;;28.70;82.80;;;;;;4997243;28;20018;-63
2021/07/26 11:56:32;;;;;;;5.28;1.92;;;28.60;83.80;;;;;;5000090;28;20039;-63
2021/07/26 11:59:21;;;;;;;2.42;2.15;;;28.10;82.40;;;;;;4996183;28;20022;-62
2021/07/26 12:01:56;;;;;;;2.83;2.00;;;27.70;83.90;;;;;;5000763;28;20032;-63
2021/07/26 12:04:25;;;;;;;4.90;1.90;;;27.50;86.10;;;;;;4990543;28;20070;-62
2021/07/26 12:06:52;;;;;;;7.22;3.20;;;27.40;85.80;;;;;;5003380;28;20747;-62
2021/07/26 12:09:19;;;;;;;3.95;2.10;;;27.70;86.50;;;;;;5007704;28;20092;-62
2021/07/26 12:11:44;;;;;;;4.40;2.33;;;27.80;84.50;;;;;;5009889;28;20391;-62
2021/07/26 12:14:24;;;;;;;3.55;2.35;;;28.00;82.20;;;;;;5002984;28;20030;-61
2021/07/26 12:17:04;;;;;;;5.55;2.03;;;27.80;81.50;;;;;;5001102;28;20032;-62
2021/07/26 12:19:32;;;;;;;3.92;2.10;;;27.60;84.00;;;;;;5007617;28;20521;-62
2021/07/26 12:22:20;;;;;;;3.45;2.00;;;27.60;84.60;;;;;;5007977;28;20077;-62
2021/07/26 12:24:58;;;;;;;5.22;2.20;;;27.60;85.30;;;;;;5003371;28;20061;-63
2021/07/26 12:27:31;;;;;;;5.85;2.10;;;27.30;86.20;;;;;;5004197;28;20030;-63
2021/07/26 12:30:12;;;;;;;3.72;2.03;;;27.20;88.00;;;;;;5008136;28;20051;-63
2021/07/26 12:32:51;;;;;;;3.10;2.08;;;27.40;85.60;;;;;;5004237;28;20084;-63
2021/07/26 12:35:28;;;;;;;4.32;2.55;;;27.80;85.60;;;;;;5007251;28;20037;-63
2021/07/26 12:38:02;;;;;;;3.53;2.03;;;27.90;83.80;;;;;;5005660;28;20669;-63
2021/07/26 12:40:29;;;;;;;10.95;2.40;;;28.10;83.70;;;;;;5002820;28;20775;-62
2021/07/26 12:43:13;;;;;;;3.50;1.83;;;28.10;83.80;;;;;;5007574;28;20415;-65
2021/07/26 12:45:41;;;;;;;2.72;2.22;;;28.30;84.50;;;;;;4997904;28;20092;-63
2021/07/26 12:48:15;;;;;;;3.53;2.28;;;28.10;83.00;;;;;;5004208;28;20030;-62
2021/07/26 12:50:46;;;;;;;2.97;2.17;;;27.80;81.20;;;;;;5020222;28;20033;-61
2021/07/26 12:53:13;;;;;;;3.85;1.98;;;27.80;83.30;;;;;;5007353;28;20026;-63